createdAt,value
2023-05-23T04:22:36.470Z,97911.81
2023-05-23T04:46:35.508Z,97900.50
2023-05-23T04:49:19.611Z,97916.34
2023-05-23T05:51:19.487Z,97902.34
2023-05-23T06:04:43.269Z,97886.63
2023-05-23T06:21:16.917Z,97871.81
2023-05-23T06:24:10.105Z,97875.13
2023-05-23T06:26:41.681Z,97877.06
2023-05-23T06:29:14.722Z,97871.22
2023-05-23T06:31:46.573Z,97864.50
2023-05-23T06:34:16.521Z,97864.00
2023-05-23T06:36:48.274Z,97862.44
2023-05-23T06:39:19.675Z,97864.59
2023-05-23T06:41:50.754Z,97860.47
2023-05-23T06:44:23.000Z,97852.53
2023-05-23T06:46:58.917Z,97849.50
2023-05-23T06:49:28.518Z,97842.03
2023-05-23T06:51:59.688Z,97845.13
2023-05-23T06:54:29.404Z,97832.53
2023-05-23T06:57:18.570Z,97825.41
2023-05-23T06:59:48.584Z,97831.56
2023-05-23T07:02:19.342Z,97825.16
2023-05-23T07:04:53.378Z,97825.88
2023-05-23T07:07:44.601Z,97817.94
2023-05-23T07:10:15.303Z,97818.88
2023-05-23T07:12:45.953Z,97815.25
2023-05-23T07:15:18.030Z,97809.19
2023-05-23T07:18:02.703Z,97809.97
2023-05-23T07:20:36.004Z,97803.72
2023-05-23T07:23:14.273Z,97798.66
2023-05-23T07:26:02.641Z,97807.31
2023-05-23T07:28:47.858Z,97792.78
2023-05-23T07:31:19.054Z,97791.34
2023-05-23T07:33:49.492Z,97800.44
2023-05-23T07:36:29.169Z,97784.53
2023-05-23T07:38:58.642Z,97779.84
2023-05-23T07:41:29.136Z,97773.91
2023-05-23T07:43:58.893Z,97774.94
2023-05-23T07:46:29.276Z,97774.41
2023-05-23T07:49:00.519Z,97770.22
2023-05-23T07:51:30.270Z,97763.09
2023-05-23T07:54:00.199Z,97764.56
2023-05-23T07:56:32.399Z,97758.16
2023-05-23T07:59:02.545Z,97758.50
2023-05-23T08:01:32.815Z,97753.59
2023-05-23T08:04:09.713Z,97753.19
2023-05-23T08:07:04.404Z,97746.66
2023-05-23T08:09:45.404Z,97736.09
2023-05-23T08:12:22.388Z,97736.44
2023-05-23T08:15:00.832Z,97730.91
2023-05-23T08:17:35.342Z,97720.16
2023-05-23T08:20:13.018Z,97715.88
2023-05-23T08:26:54.373Z,97696.97
2023-05-23T08:29:24.255Z,97695.56
2023-05-23T08:32:13.568Z,97684.03
2023-05-23T08:35:04.881Z,97691.19
2023-05-23T08:37:59.591Z,97686.63
2023-05-23T08:40:53.382Z,97698.84
2023-05-23T08:43:45.496Z,97699.63
2023-05-23T08:46:47.313Z,97693.59
2023-05-23T08:49:49.356Z,97700.38
2023-05-23T08:52:52.068Z,97700.41
2023-05-23T08:55:42.493Z,97706.13
2023-05-23T08:58:35.422Z,97709.78
2023-05-23T09:01:27.943Z,97716.06
2023-05-23T09:04:21.512Z,97714.91
2023-05-23T09:07:21.218Z,97736.19
2023-05-23T09:10:17.944Z,97734.13
2023-05-23T09:13:11.270Z,97736.31
2023-05-23T09:16:09.048Z,97725.59
2023-05-23T09:19:13.867Z,97730.53
2023-05-23T09:22:10.454Z,97732.47
2023-05-23T09:25:13.533Z,97736.16
2023-05-23T09:28:06.119Z,97739.28
2023-05-23T12:19:08.694Z,97453.47
2023-05-23T12:21:44.039Z,97461.38
2023-05-23T12:24:18.511Z,97458.50
2023-05-23T12:26:49.474Z,97458.09
2023-05-23T12:32:07.554Z,97446.56
2023-05-23T12:34:42.473Z,97447.66
2023-05-23T12:37:19.452Z,97445.78
2023-05-23T12:39:49.692Z,97445.13
2023-05-23T12:42:19.256Z,97455.34
2023-05-23T12:44:52.783Z,97449.13
2023-05-23T12:47:22.463Z,97441.13
2023-05-23T12:49:51.573Z,97444.66
2023-05-23T12:52:20.917Z,97448.19
2023-05-23T12:54:50.484Z,97443.63
2023-05-23T12:57:19.981Z,97435.94
2023-05-23T12:59:49.189Z,97440.53
2023-05-23T13:02:18.616Z,97441.16
2023-05-23T13:04:47.787Z,97437.63
2023-05-23T13:07:17.714Z,97438.84
2023-05-23T13:09:46.870Z,97435.75
2023-05-23T13:12:16.188Z,97434.03
2023-05-23T13:14:45.390Z,97443.91
2023-05-23T13:17:15.483Z,97436.50
2023-05-23T13:19:47.925Z,97430.91
2023-05-23T13:22:20.469Z,97436.22
2023-05-23T13:24:49.951Z,97438.22
2023-05-23T13:27:19.712Z,97443.34
2023-05-23T13:29:49.087Z,97445.78
2023-05-23T13:32:18.735Z,97451.09
2023-05-23T13:34:47.908Z,97456.19
2023-05-23T13:37:17.406Z,97467.19
2023-05-23T13:39:46.861Z,97470.91
2023-05-23T13:42:16.868Z,97485.28
2023-05-23T13:44:45.900Z,97484.44
2023-05-23T13:47:16.774Z,97494.28
2023-05-23T13:49:46.678Z,97493.34
2023-05-23T13:52:16.233Z,97501.25
2023-05-23T13:54:45.461Z,97507.75
2023-05-23T13:57:14.953Z,97509.06
2023-05-23T13:59:44.104Z,97512.41
2023-05-23T14:02:13.604Z,97513.19
2023-05-23T14:04:42.760Z,97517.88
2023-05-23T14:07:12.125Z,97531.63
2023-05-23T14:09:41.838Z,97535.81
2023-05-23T14:12:11.158Z,97545.75
2023-05-23T14:14:40.275Z,97557.59
2023-05-23T14:17:09.677Z,97565.91
2023-05-23T14:19:39.114Z,97564.50
2023-05-23T14:22:08.550Z,97567.94
2023-05-23T14:24:37.570Z,97574.66
2023-05-23T14:27:10.230Z,97584.63
2023-05-23T14:29:41.695Z,97594.56
2023-05-23T14:32:11.302Z,97607.47
2023-05-23T14:34:40.400Z,97607.25
2023-05-23T14:37:09.806Z,97616.63
2023-05-23T14:39:41.280Z,97623.34
2023-05-23T14:42:11.172Z,97623.06
2023-05-23T14:44:40.652Z,97634.38
2023-05-23T14:47:09.905Z,97639.44
2023-05-23T14:49:39.053Z,97644.31
2023-05-23T14:52:08.509Z,97642.66
2023-05-23T14:54:37.521Z,97635.84
2023-05-23T14:57:06.981Z,97634.75
2023-05-23T14:59:36.503Z,97629.66
2023-05-23T15:02:08.441Z,97629.97
2023-05-23T15:04:38.396Z,97632.44
2023-05-23T15:07:07.723Z,97626.84
2023-05-23T15:09:37.459Z,97627.31
2023-05-23T15:12:08.745Z,97631.97
2023-05-23T15:14:38.354Z,97633.00
2023-05-23T15:17:10.643Z,97626.00
2023-05-23T15:19:40.779Z,97623.97
2023-05-23T15:22:18.746Z,97616.84
2023-05-23T15:24:52.136Z,97618.22
2023-05-23T15:27:23.442Z,97610.28
2023-05-23T15:29:52.693Z,97604.81
2023-05-23T15:32:22.351Z,97605.16
2023-05-23T15:34:51.559Z,97604.09
2023-05-23T15:37:21.020Z,97604.09
2023-05-23T15:39:51.089Z,97608.59
2023-05-23T15:42:20.282Z,97615.13
2023-05-23T15:44:49.778Z,97611.63
2023-05-23T15:47:19.917Z,97617.00
2023-05-23T15:49:49.377Z,97624.22
2023-05-23T15:52:18.847Z,97613.59
2023-05-23T15:54:48.017Z,97617.56
2023-05-23T15:57:17.756Z,97620.59
2023-05-23T15:59:46.734Z,97623.09
2023-05-23T16:02:18.165Z,97625.44
2023-05-23T16:04:47.399Z,97631.31
2023-05-23T16:07:18.533Z,97630.59
2023-05-23T16:09:47.927Z,97632.56
2023-05-23T16:12:17.130Z,97637.41
2023-05-23T16:14:46.283Z,97636.84
2023-05-23T16:17:15.509Z,97631.50
2023-05-23T16:19:44.928Z,97638.78
2023-05-23T16:22:14.154Z,97633.47
2023-05-23T16:24:43.440Z,97627.91
2023-05-23T16:27:13.184Z,97637.56
2023-05-23T16:29:42.172Z,97648.72
2023-05-23T16:32:11.774Z,97654.75
2023-05-23T16:34:41.447Z,97652.56
2023-05-23T16:37:11.082Z,97648.09
2023-05-23T16:39:44.015Z,97656.84
2023-05-23T16:42:13.365Z,97653.72
2023-05-23T16:44:42.969Z,97644.56
2023-05-23T16:47:12.566Z,97641.88
2023-05-23T16:49:41.813Z,97637.72
2023-05-23T16:52:11.114Z,97636.53
2023-05-23T16:54:40.665Z,97629.88
2023-05-23T16:57:09.815Z,97625.22
2023-05-23T16:59:39.060Z,97625.53
2023-05-23T17:02:09.253Z,97617.56
2023-05-23T17:04:38.582Z,97602.94
2023-05-23T17:07:10.562Z,97612.28
2023-05-23T17:09:42.498Z,97608.63
2023-05-23T17:12:13.668Z,97611.28
2023-05-23T17:14:42.890Z,97614.47
2023-05-23T17:17:12.188Z,97608.97
2023-05-23T17:19:41.932Z,97604.09
2023-05-23T17:22:11.139Z,97591.16
2023-05-23T17:24:40.581Z,97582.34
2023-05-23T17:27:09.992Z,97596.31
2023-05-23T17:29:39.147Z,97610.47
2023-05-23T17:32:08.786Z,97613.47
2023-05-23T17:34:37.910Z,97620.97
2023-05-23T17:37:07.427Z,97628.63
2023-05-23T17:39:36.816Z,97632.94
2023-05-23T17:42:06.687Z,97639.13
2023-05-23T17:44:36.155Z,97633.63
2023-05-23T17:47:05.493Z,97636.59
2023-05-23T17:49:34.952Z,97635.81
2023-05-23T17:52:06.900Z,97629.94
2023-05-23T17:54:35.623Z,97627.47
2023-05-23T17:57:05.868Z,97634.16
2023-05-23T17:59:35.029Z,97631.66
2023-05-23T18:02:05.998Z,97622.00
2023-05-23T18:04:35.868Z,97605.22
2023-05-23T18:07:07.176Z,97602.72
2023-05-23T18:09:36.422Z,97612.38
2023-05-23T18:12:06.102Z,97621.00
2023-05-23T18:14:36.046Z,97626.66
2023-05-23T18:17:05.364Z,97628.19
2023-05-23T18:19:35.329Z,97633.31
2023-05-23T18:22:04.608Z,97629.97
2023-05-23T18:24:33.900Z,97629.97
2023-05-23T18:27:04.659Z,97620.34
2023-05-23T18:29:34.084Z,97618.66
2023-05-23T18:32:03.657Z,97633.47
2023-05-23T18:34:33.019Z,97627.81
2023-05-23T18:37:04.296Z,97629.97
2023-05-23T18:39:33.537Z,97637.13
2023-05-23T18:42:02.954Z,97652.91
2023-05-23T18:44:32.146Z,97669.06
2023-05-23T18:47:01.516Z,97679.06
2023-05-23T18:49:30.733Z,97681.41
2023-05-23T18:52:00.738Z,97676.22
2023-05-23T18:54:29.900Z,97683.38
2023-05-23T18:56:59.187Z,97691.69
2023-05-23T18:59:28.539Z,97686.72
2023-05-23T19:02:00.388Z,97694.00
2023-05-23T19:04:29.901Z,97707.50
2023-05-23T19:06:59.537Z,97721.47
2023-05-23T19:09:29.041Z,97719.31
2023-05-23T19:11:58.403Z,97741.41
2023-05-23T19:14:27.460Z,97753.38
2023-05-23T19:16:57.004Z,97763.22
2023-05-23T19:19:27.915Z,97761.03
2023-05-23T19:21:59.428Z,97784.97
2023-05-23T19:24:28.784Z,97801.38
2023-05-23T19:26:58.322Z,97799.09
2023-05-23T19:29:28.204Z,97788.47
2023-05-23T19:31:57.509Z,97805.81
2023-05-23T19:34:27.436Z,97849.03
2023-05-23T19:36:56.901Z,97859.03
2023-05-23T19:39:26.071Z,97890.72
2023-05-23T19:41:55.509Z,97928.94
2023-05-23T19:44:25.250Z,97954.81
2023-05-23T19:46:54.483Z,97957.88
2023-05-23T19:49:24.176Z,97971.25
2023-05-23T19:51:53.485Z,97950.78
2023-05-23T19:54:24.284Z,97945.84
2023-05-23T19:56:54.621Z,97923.69
2023-05-23T19:59:23.575Z,97923.13
2023-05-23T20:01:52.784Z,97928.25
2023-05-23T20:04:25.247Z,97915.00
2023-05-23T20:06:54.373Z,97915.81
2023-05-23T20:09:24.180Z,97916.19
2023-05-23T20:11:53.679Z,97902.16
2023-05-23T20:14:23.174Z,97887.75
2023-05-23T20:16:54.966Z,97873.44
2023-05-23T20:19:24.247Z,97877.66
2023-05-23T20:21:53.568Z,97852.19
2023-05-23T20:24:23.107Z,97827.31
2023-05-23T20:26:52.702Z,97837.84
2023-05-23T20:29:22.748Z,97833.97
2023-05-23T20:31:52.069Z,97826.47
2023-05-23T20:34:22.077Z,97790.06
2023-05-23T20:36:51.341Z,97761.47
2023-05-23T20:39:22.147Z,97749.81
2023-05-23T20:41:51.689Z,97728.31
2023-05-23T20:44:21.245Z,97704.06
2023-05-23T20:46:50.819Z,97673.38
2023-05-23T20:49:20.209Z,97641.34
2023-05-23T20:51:49.365Z,97633.72
2023-05-23T20:54:18.910Z,97641.81
2023-05-23T20:56:48.240Z,97626.69
2023-05-23T20:59:19.137Z,97588.16
2023-05-23T21:24:22.998Z,97482.88
2023-05-23T21:26:53.221Z,97496.63
2023-05-23T21:29:22.327Z,97500.78
2023-05-23T21:31:51.604Z,97483.06
2023-05-23T21:34:24.330Z,97516.94
2023-05-23T21:36:54.527Z,97575.00
2023-05-23T21:39:23.938Z,97595.91
2023-05-23T21:41:53.004Z,97610.66
2023-05-23T21:44:22.448Z,97590.38
2023-05-23T21:46:52.066Z,97598.44
2023-05-23T21:49:21.580Z,97593.56
2023-05-23T21:51:51.270Z,97595.78
2023-05-23T21:58:17.338Z,97576.66
2023-05-23T22:00:50.080Z,97574.16
2023-05-23T22:03:38.315Z,97571.22
2023-05-23T22:06:08.084Z,97572.53
2023-05-23T22:08:59.048Z,97567.47
2023-05-23T22:11:34.754Z,97567.09
2023-05-23T22:17:58.816Z,97586.81
2023-05-23T22:21:29.632Z,97566.63
2023-05-23T22:28:21.304Z,97588.69
2023-05-23T22:30:50.576Z,97597.81
2023-05-23T22:33:19.692Z,97617.56
2023-05-23T22:36:26.236Z,97601.03
2023-05-23T22:38:55.810Z,97598.91
2023-05-23T22:45:43.577Z,97591.28
2023-05-23T22:48:12.902Z,97586.03
2023-05-23T22:50:42.353Z,97601.06
2023-05-23T22:53:12.869Z,97599.66
2023-05-23T22:55:42.223Z,97603.09
2023-05-23T22:58:11.665Z,97608.28
2023-05-23T23:00:41.236Z,97613.88
2023-05-23T23:03:10.641Z,97622.16
2023-05-23T23:05:40.107Z,97596.00
2023-05-23T23:08:09.555Z,97615.47
2023-05-23T23:10:39.199Z,97605.31
2023-05-23T23:13:48.907Z,97619.22
2023-05-23T23:16:20.423Z,97606.34
2023-05-23T23:18:50.280Z,97612.53
2023-05-23T23:21:19.605Z,97610.88
2023-05-23T23:23:49.316Z,97603.56
2023-05-23T23:26:18.537Z,97598.50
2023-05-23T23:28:47.824Z,97595.91
2023-05-23T23:31:17.160Z,97598.25
2023-05-23T23:33:46.490Z,97597.81
2023-05-23T23:36:15.639Z,97598.00
2023-05-23T23:38:45.295Z,97608.78
2023-05-23T23:41:14.367Z,97604.84
2023-05-23T23:43:43.630Z,97607.13
2023-05-23T23:46:13.286Z,97621.22
2023-05-23T23:48:42.591Z,97632.66
2023-05-23T23:51:11.552Z,97651.41
2023-05-23T23:53:41.038Z,97652.63
2023-05-23T23:56:10.200Z,97638.03
2023-05-23T23:58:39.326Z,97628.69
